• Join FlightAware (Why Join?)
  • Login
  • US Flag 
05:26AM EST


 

Airport Tracker/Info


-or-


 

Live Flight TrackerFlight Track Log ✈ SWA3943 ✈ 01-May-2013 ✈ KCMH - KBWI

Flight Track Log - Related Links

Times and Time Zones

All times are in EDT time to prevent confusion due to time zone crossing. See the SWA3943 flight status page for this flight to view local times or setup timezone preferences in your user account.

Time Position Orientation Groundspeed Altitude Reporting Facility
EDT Latitude Longitude Course Direction KTS MPH feet Rate Location/Type
08:29PM 39.9906 -82.8081 92° East 207 238 3,500  Level Indianapolis Center
08:30PM 39.9894 -82.7200 91° East 228 262 6,400 3,180 Climbing Indianapolis Center
08:31PM 39.9872 -82.6258 92° East 252 290 10,500 3,420 Climbing Indianapolis Center
08:32PM 39.9872 -82.5122 90° East 308 354 13,500 3,120 Climbing Indianapolis Center
08:33PM 39.9897 -82.3903 88° East 328 377 16,900 2,940 Climbing Indianapolis Center
08:34PM 39.9942 -82.2594 87° East 350 403 19,600 2,700 Climbing Indianapolis Center
08:35PM 39.9978 -82.1217 88° East 369 425 22,500 2,880 Climbing Indianapolis Center
08:36PM 40.0006 -81.9553 89° East 386 444 25,600 2,400 Climbing Indianapolis Center
08:37PM 40.0028 -81.8086 89° East 398 458 27,500 1,620 Climbing Indianapolis Center
08:38PM 40.0050 -81.6594 89° East 407 468 29,000 720 Climbing Indianapolis Center
08:39PM 39.9903 -81.4997 97° East 437 503 29,000  Level Indianapolis Center
08:40PM 39.9697 -81.3361 99° East 451 519 29,000  Level Indianapolis Center
08:41PM 39.9522 -81.1939 99° East 437 503 29,000  Level Indianapolis Center
08:42PM 39.9408 -81.0894 98° East 439 505 29,000  Level Cleveland Center
08:43PM 39.9228 -80.9378 99° East 427 491 29,000  Level Cleveland Center
08:44PM 39.9003 -80.7861 101° East 427 491 29,000  Level Cleveland Center
08:45PM 39.8794 -80.6344 100° East 427 491 29,000  Level Cleveland Center
08:46PM 39.8608 -80.4775 99° East 427 491 29,000  Level Cleveland Center
08:47PM 39.8397 -80.3264 100° East 427 491 29,000  Level Cleveland Center
08:48PM 39.8183 -80.1722 100° East 427 491 29,000  Level Cleveland Center
08:49PM 39.7969 -80.0183 100° East 427 491 29,000  Level Cleveland Center
08:51PM 39.7619 -79.7756 101° East 423 487 29,000  Level Washington Center
08:52PM 39.7403 -79.6125 100° East 437 503 29,000  Level Washington Center
08:53PM 39.7164 -79.4519 101° East 442 509 29,000 -120 Level Washington Center
08:54PM 39.6922 -79.2914 101° East 447 514 28,800 -1,620 Descending Washington Center
08:55PM 39.6719 -79.1367 100° East 447 514 25,800 -1,920 Descending Washington Center
08:56PM 39.6411 -78.9789 104° East 452 520 25,000 -420 Descending Washington Center
08:57PM 39.6000 -78.8072 107° East 457 526 25,000  Level Washington Center
08:58PM 39.5664 -78.6578 106° East 452 520 25,000 -1,140 Level Washington Center
08:59PM 39.5325 -78.5083 106° East 440 506 22,800 -2,520 Descending Washington Center
09:00PM 39.5025 -78.3672 105° East 421 484 19,900 -2,700 Descending Washington Center
09:01PM 39.4722 -78.2317 106° East 405 466 17,500 -2,520 Descending Washington Center
09:02PM 39.4436 -78.1042 106° East 388 447 15,000 -1,440 Descending Washington Center
09:03PM 39.4233 -77.9747 101° East 375 432 14,700 -900 Descending Washington Center
09:04PM 39.4300 -77.8458 86° East 364 419 13,300 -1,320 Descending Washington Center
09:05PM 39.4322 -77.7222 89° East 351 404 12,100 -1,140 Descending Washington Center
09:06PM 39.4364 -77.6042 87° East 339 390 11,000 -540 Descending Washington Center
09:07PM 39.4403 -77.4914 87° East 319 367 11,100  Climbing Washington Center
09:08PM 39.4500 -77.3500 85° East 293 337 11,000  Descending Potomac TRACON
09:09PM 39.4667 -77.2500 78° East 294 338 11,100 -600 Climbing Potomac TRACON
09:10PM 39.4667 -77.1667 90° East 281 323 9,800 -1,500 Descending Potomac TRACON
09:11PM 39.4833 -77.0667 78° East 278 320 8,100 -1,740 Descending Potomac TRACON
09:12PM 39.4833 -76.9500 90° East 277 319 6,200 -1,440 Descending Potomac TRACON
09:13PM 39.4500 -76.8667 117° Southeast 264 304 5,100 -1,020 Descending Potomac TRACON
09:14PM 39.3833 -76.8167 150° Southeast 274 315 4,200 -600 Descending Potomac TRACON
09:15PM 39.3167 -76.8333 191° South 276 318 3,900 -900 Descending Potomac TRACON
09:16PM 39.2500 -76.8333 180° South 249 287 2,500 -720 Descending Potomac TRACON
09:17PM 39.1833 -76.8167 169° South 170 196 2,400 -300 Descending Potomac TRACON
09:18PM 39.1833 -76.7833 90° East 116 133 2,000 -660 Descending Potomac TRACON
09:19PM 39.1833 -76.7500 90° East 114 131 1,200 -720 Descending Potomac TRACON
09:20PM 39.1833 -76.7167 90° East 114 131 600 -600 Descending Potomac TRACON
09:22PM 39.1667 -76.6667 142° Southeast  Level FlightAware Approximate
09:29PM 39.1754 -76.6683 142° Southeast  Level Estimated
09:30PM 39.1754 -76.6683 142° Southeast  Level Estimated
09:31PM 39.1754 -76.6683 142° Southeast  Level Estimated